sensor_id;sensor_type;location;lat;lon;timestamp;temperature;humidity
58582;DHT22;44361;51.476;5.700;2023-05-02T00:00:29;11.30;99.90
58582;DHT22;44361;51.476;5.700;2023-05-02T00:02:55;11.30;99.90
58582;DHT22;44361;51.476;5.700;2023-05-02T00:05:21;11.30;99.90
58582;DHT22;44361;51.476;5.700;2023-05-02T00:07:46;11.30;99.90
58582;DHT22;44361;51.476;5.700;2023-05-02T00:10:12;11.40;99.90
58582;DHT22;44361;51.476;5.700;2023-05-02T00:12:38;11.30;99.90
58582;DHT22;44361;51.476;5.700;2023-05-02T00:15:04;11.30;99.90
58582;DHT22;44361;51.476;5.700;2023-05-02T00:17:30;11.30;99.90
58582;DHT22;44361;51.476;5.700;2023-05-02T00:19:56;11.40;99.90
58582;DHT22;44361;51.476;5.700;2023-05-02T00:22:21;11.40;99.90
58582;DHT22;44361;51.476;5.700;2023-05-02T00:24:47;11.40;99.90
58582;DHT22;44361;51.476;5.700;2023-05-02T00:27:12;11.30;99.90
58582;DHT22;44361;51.476;5.700;2023-05-02T00:29:39;11.30;99.90
58582;DHT22;44361;51.476;5.700;2023-05-02T00:32:05;11.30;99.90
58582;DHT22;44361;51.476;5.700;2023-05-02T00:34:31;11.30;99.90
58582;DHT22;44361;51.476;5.700;2023-05-02T00:36:57;11.40;99.90
58582;DHT22;44361;51.476;5.700;2023-05-02T00:39:22;11.50;99.90
58582;DHT22;44361;51.476;5.700;2023-05-02T00:41:48;11.40;99.90
58582;DHT22;44361;51.476;5.700;2023-05-02T00:44:14;11.30;99.90
58582;DHT22;44361;51.476;5.700;2023-05-02T00:46:39;11.40;99.90
58582;DHT22;44361;51.476;5.700;2023-05-02T00:49:05;11.40;99.90
58582;DHT22;44361;51.476;5.700;2023-05-02T00:51:34;11.40;99.90
58582;DHT22;44361;51.476;5.700;2023-05-02T00:54:00;11.30;99.90
58582;DHT22;44361;51.476;5.700;2023-05-02T00:56:26;11.30;99.90
58582;DHT22;44361;51.476;5.700;2023-05-02T00:58:53;11.30;99.90
58582;DHT22;44361;51.476;5.700;2023-05-02T01:01:52;11.30;99.90
58582;DHT22;44361;51.476;5.700;2023-05-02T01:10:08;11.20;99.90
58582;DHT22;44361;51.476;5.700;2023-05-02T01:12:42;11.20;99.90
58582;DHT22;44361;51.476;5.700;2023-05-02T01:15:15;11.20;99.90
58582;DHT22;44361;51.476;5.700;2023-05-02T01:17:41;11.10;99.90
58582;DHT22;44361;51.476;5.700;2023-05-02T01:20:12;11.10;99.90
58582;DHT22;44361;51.476;5.700;2023-05-02T01:22:38;11.00;99.90
58582;DHT22;44361;51.476;5.700;2023-05-02T01:30:14;11.00;99.90
58582;DHT22;44361;51.476;5.700;2023-05-02T01:32:45;10.90;99.90
58582;DHT22;44361;51.476;5.700;2023-05-02T01:35:13;10.90;99.90
58582;DHT22;44361;51.476;5.700;2023-05-02T01:37:40;10.90;99.90
58582;DHT22;44361;51.476;5.700;2023-05-02T01:40:08;10.80;99.90
58582;DHT22;44361;51.476;5.700;2023-05-02T01:42:36;10.80;99.90
58582;DHT22;44361;51.476;5.700;2023-05-02T01:45:03;10.80;99.90
58582;DHT22;44361;51.476;5.700;2023-05-02T01:47:32;10.70;99.90
58582;DHT22;44361;51.476;5.700;2023-05-02T01:50:02;10.70;99.90
58582;DHT22;44361;51.476;5.700;2023-05-02T01:52:28;10.70;99.90
58582;DHT22;44361;51.476;5.700;2023-05-02T01:54:54;10.70;99.90
58582;DHT22;44361;51.476;5.700;2023-05-02T01:57:22;10.60;99.90
58582;DHT22;44361;51.476;5.700;2023-05-02T01:59:49;10.60;99.90
58582;DHT22;44361;51.476;5.700;2023-05-02T02:02:14;10.60;99.90
58582;DHT22;44361;51.476;5.700;2023-05-02T02:04:41;10.60;99.90
58582;DHT22;44361;51.476;5.700;2023-05-02T02:07:10;10.60;99.90
58582;DHT22;44361;51.476;5.700;2023-05-02T02:09:37;10.60;99.90
58582;DHT22;44361;51.476;5.700;2023-05-02T02:12:29;10.60;99.90
58582;DHT22;44361;51.476;5.700;2023-05-02T02:14:59;10.60;99.90
58582;DHT22;44361;51.476;5.700;2023-05-02T02:17:45;10.60;99.90
58582;DHT22;44361;51.476;5.700;2023-05-02T02:20:12;10.60;99.90
58582;DHT22;44361;51.476;5.700;2023-05-02T02:22:40;10.60;99.90
58582;DHT22;44361;51.476;5.700;2023-05-02T02:25:10;10.60;99.90
58582;DHT22;44361;51.476;5.700;2023-05-02T02:27:37;10.60;99.90
58582;DHT22;44361;51.476;5.700;2023-05-02T02:30:04;10.60;99.90
58582;DHT22;44361;51.476;5.700;2023-05-02T02:32:30;10.60;99.90
58582;DHT22;44361;51.476;5.700;2023-05-02T02:34:55;10.60;99.90
58582;DHT22;44361;51.476;5.700;2023-05-02T02:37:32;10.70;99.90
58582;DHT22;44361;51.476;5.700;2023-05-02T02:42:49;10.60;99.90
58582;DHT22;44361;51.476;5.700;2023-05-02T02:45:44;10.70;99.90
58582;DHT22;44361;51.476;5.700;2023-05-02T02:48:36;10.60;99.90
58582;DHT22;44361;51.476;5.700;2023-05-02T02:51:11;10.70;99.90
58582;DHT22;44361;51.476;5.700;2023-05-02T02:56:15;10.70;99.90
58582;DHT22;44361;51.476;5.700;2023-05-02T03:01:20;10.70;99.90
58582;DHT22;44361;51.476;5.700;2023-05-02T03:03:47;10.80;99.90
58582;DHT22;44361;51.476;5.700;2023-05-02T03:06:16;10.80;99.90
58582;DHT22;44361;51.476;5.700;2023-05-02T03:08:42;10.70;99.90
58582;DHT22;44361;51.476;5.700;2023-05-02T03:11:08;10.70;99.90
58582;DHT22;44361;51.476;5.700;2023-05-02T03:13:34;10.70;99.90
58582;DHT22;44361;51.476;5.700;2023-05-02T03:18:53;10.70;99.90
58582;DHT22;44361;51.476;5.700;2023-05-02T03:21:18;10.70;99.90
58582;DHT22;44361;51.476;5.700;2023-05-02T03:23:44;10.70;99.90
58582;DHT22;44361;51.476;5.700;2023-05-02T03:26:09;10.70;99.90
58582;DHT22;44361;51.476;5.700;2023-05-02T03:28:35;10.70;99.90
58582;DHT22;44361;51.476;5.700;2023-05-02T03:31:00;10.70;99.90
58582;DHT22;44361;51.476;5.700;2023-05-02T03:33:26;10.80;99.90
58582;DHT22;44361;51.476;5.700;2023-05-02T03:35:52;10.80;99.90
58582;DHT22;44361;51.476;5.700;2023-05-02T03:38:18;10.70;99.90
58582;DHT22;44361;51.476;5.700;2023-05-02T03:40:44;10.70;99.90
58582;DHT22;44361;51.476;5.700;2023-05-02T03:43:10;10.70;99.90
58582;DHT22;44361;51.476;5.700;2023-05-02T03:45:36;10.70;99.90
58582;DHT22;44361;51.476;5.700;2023-05-02T03:48:01;10.60;99.90
58582;DHT22;44361;51.476;5.700;2023-05-02T03:50:27;10.50;99.90
58582;DHT22;44361;51.476;5.700;2023-05-02T03:52:53;10.60;99.90
58582;DHT22;44361;51.476;5.700;2023-05-02T03:55:19;10.60;99.90
58582;DHT22;44361;51.476;5.700;2023-05-02T03:57:45;10.50;99.90
58582;DHT22;44361;51.476;5.700;2023-05-02T04:00:11;10.50;99.90
58582;DHT22;44361;51.476;5.700;2023-05-02T04:02:37;10.50;99.90
58582;DHT22;44361;51.476;5.700;2023-05-02T04:05:03;10.50;99.90
58582;DHT22;44361;51.476;5.700;2023-05-02T04:07:28;10.50;99.90
58582;DHT22;44361;51.476;5.700;2023-05-02T04:09:54;10.50;99.90
58582;DHT22;44361;51.476;5.700;2023-05-02T04:12:19;10.40;99.90
58582;DHT22;44361;51.476;5.700;2023-05-02T04:14:45;10.40;99.90
58582;DHT22;44361;51.476;5.700;2023-05-02T04:17:11;10.30;99.90
58582;DHT22;44361;51.476;5.700;2023-05-02T04:19:36;10.20;99.90
58582;DHT22;44361;51.476;5.700;2023-05-02T04:22:02;10.30;99.90
58582;DHT22;44361;51.476;5.700;2023-05-02T04:24:28;10.20;99.90
58582;DHT22;44361;51.476;5.700;2023-05-02T04:26:53;10.20;99.90
58582;DHT22;44361;51.476;5.700;2023-05-02T04:29:20;10.20;99.90
58582;DHT22;44361;51.476;5.700;2023-05-02T04:31:46;10.20;99.90
58582;DHT22;44361;51.476;5.700;2023-05-02T04:34:11;10.10;99.90
58582;DHT22;44361;51.476;5.700;2023-05-02T04:36:37;10.10;99.90
58582;DHT22;44361;51.476;5.700;2023-05-02T04:39:03;10.10;99.90
58582;DHT22;44361;51.476;5.700;2023-05-02T04:41:31;10.20;99.90
58582;DHT22;44361;51.476;5.700;2023-05-02T04:43:56;10.20;99.90
58582;DHT22;44361;51.476;5.700;2023-05-02T04:46:22;10.20;99.90
58582;DHT22;44361;51.476;5.700;2023-05-02T04:48:48;10.20;99.90
58582;DHT22;44361;51.476;5.700;2023-05-02T04:51:14;10.10;99.90
58582;DHT22;44361;51.476;5.700;2023-05-02T04:53:39;10.10;99.90
58582;DHT22;44361;51.476;5.700;2023-05-02T04:56:05;10.10;99.90
58582;DHT22;44361;51.476;5.700;2023-05-02T04:58:31;10.10;99.90
58582;DHT22;44361;51.476;5.700;2023-05-02T05:00:57;10.10;99.90
58582;DHT22;44361;51.476;5.700;2023-05-02T05:03:22;10.10;99.90
58582;DHT22;44361;51.476;5.700;2023-05-02T05:05:48;10.10;99.90
58582;DHT22;44361;51.476;5.700;2023-05-02T05:08:14;10.10;99.90
58582;DHT22;44361;51.476;5.700;2023-05-02T05:10:39;10.20;99.90
58582;DHT22;44361;51.476;5.700;2023-05-02T05:13:05;10.20;99.90
58582;DHT22;44361;51.476;5.700;2023-05-02T05:15:31;10.30;99.90
58582;DHT22;44361;51.476;5.700;2023-05-02T05:17:56;10.20;99.90
58582;DHT22;44361;51.476;5.700;2023-05-02T05:20:22;10.20;99.90
58582;DHT22;44361;51.476;5.700;2023-05-02T05:22:48;10.20;99.90
58582;DHT22;44361;51.476;5.700;2023-05-02T05:25:13;10.20;99.90
58582;DHT22;44361;51.476;5.700;2023-05-02T05:27:39;10.20;99.90
58582;DHT22;44361;51.476;5.700;2023-05-02T05:30:05;10.30;99.90
58582;DHT22;44361;51.476;5.700;2023-05-02T05:32:34;10.50;99.90
58582;DHT22;44361;51.476;5.700;2023-05-02T05:35:00;10.50;99.90
58582;DHT22;44361;51.476;5.700;2023-05-02T05:37:26;10.60;99.90
58582;DHT22;44361;51.476;5.700;2023-05-02T05:39:52;10.50;99.90
58582;DHT22;44361;51.476;5.700;2023-05-02T05:42:17;10.40;99.90
58582;DHT22;44361;51.476;5.700;2023-05-02T05:44:43;10.40;99.90
58582;DHT22;44361;51.476;5.700;2023-05-02T05:47:08;10.60;99.90
58582;DHT22;44361;51.476;5.700;2023-05-02T05:49:34;11.20;99.90
58582;DHT22;44361;51.476;5.700;2023-05-02T05:52:01;11.60;99.90
58582;DHT22;44361;51.476;5.700;2023-05-02T05:54:27;11.40;99.90
58582;DHT22;44361;51.476;5.700;2023-05-02T05:56:52;11.10;99.90
58582;DHT22;44361;51.476;5.700;2023-05-02T05:59:18;11.00;99.90
58582;DHT22;44361;51.476;5.700;2023-05-02T06:01:43;11.10;99.90
58582;DHT22;44361;51.476;5.700;2023-05-02T06:04:09;11.00;99.90
58582;DHT22;44361;51.476;5.700;2023-05-02T06:06:35;11.20;99.90
58582;DHT22;44361;51.476;5.700;2023-05-02T06:09:01;11.20;99.90
58582;DHT22;44361;51.476;5.700;2023-05-02T06:11:26;11.30;99.90
58582;DHT22;44361;51.476;5.700;2023-05-02T06:13:52;11.20;99.90
58582;DHT22;44361;51.476;5.700;2023-05-02T06:16:18;11.70;99.90
58582;DHT22;44361;51.476;5.700;2023-05-02T06:18:48;11.80;99.90
58582;DHT22;44361;51.476;5.700;2023-05-02T06:21:14;11.60;99.90
58582;DHT22;44361;51.476;5.700;2023-05-02T06:23:40;11.20;99.90
58582;DHT22;44361;51.476;5.700;2023-05-02T06:26:05;10.90;99.90
58582;DHT22;44361;51.476;5.700;2023-05-02T06:28:31;10.70;99.90
58582;DHT22;44361;51.476;5.700;2023-05-02T06:30:58;11.30;99.90
58582;DHT22;44361;51.476;5.700;2023-05-02T06:33:24;11.60;99.90
58582;DHT22;44361;51.476;5.700;2023-05-02T06:35:53;11.70;99.90
58582;DHT22;44361;51.476;5.700;2023-05-02T06:38:18;12.00;99.90
58582;DHT22;44361;51.476;5.700;2023-05-02T06:40:44;11.80;99.90
58582;DHT22;44361;51.476;5.700;2023-05-02T06:43:10;11.70;99.90
58582;DHT22;44361;51.476;5.700;2023-05-02T06:45:36;11.80;99.90
58582;DHT22;44361;51.476;5.700;2023-05-02T06:48:02;12.00;99.90
58582;DHT22;44361;51.476;5.700;2023-05-02T06:50:28;11.90;99.90
58582;DHT22;44361;51.476;5.700;2023-05-02T06:52:53;11.70;99.90
58582;DHT22;44361;51.476;5.700;2023-05-02T06:55:19;11.40;99.90
58582;DHT22;44361;51.476;5.700;2023-05-02T06:57:45;11.30;99.90
58582;DHT22;44361;51.476;5.700;2023-05-02T07:00:12;11.50;99.90
58582;DHT22;44361;51.476;5.700;2023-05-02T07:02:37;11.40;99.90
58582;DHT22;44361;51.476;5.700;2023-05-02T07:05:03;11.20;99.90
58582;DHT22;44361;51.476;5.700;2023-05-02T07:07:29;11.20;99.90
58582;DHT22;44361;51.476;5.700;2023-05-02T07:09:54;11.10;99.90
58582;DHT22;44361;51.476;5.700;2023-05-02T07:12:20;10.90;99.90
58582;DHT22;44361;51.476;5.700;2023-05-02T07:14:45;10.90;99.90
58582;DHT22;44361;51.476;5.700;2023-05-02T07:17:11;10.80;99.90
58582;DHT22;44361;51.476;5.700;2023-05-02T07:19:37;10.80;99.90
58582;DHT22;44361;51.476;5.700;2023-05-02T07:22:02;10.80;99.90
58582;DHT22;44361;51.476;5.700;2023-05-02T07:24:28;10.70;99.90
58582;DHT22;44361;51.476;5.700;2023-05-02T07:26:54;10.80;99.90
58582;DHT22;44361;51.476;5.700;2023-05-02T07:29:19;10.90;99.90
58582;DHT22;44361;51.476;5.700;2023-05-02T07:31:45;10.90;99.90
58582;DHT22;44361;51.476;5.700;2023-05-02T07:34:10;11.10;99.90
58582;DHT22;44361;51.476;5.700;2023-05-02T07:36:36;11.10;99.90
58582;DHT22;44361;51.476;5.700;2023-05-02T07:39:02;11.40;99.90
58582;DHT22;44361;51.476;5.700;2023-05-02T07:41:27;11.60;99.90
58582;DHT22;44361;51.476;5.700;2023-05-02T07:43:53;11.50;99.90
58582;DHT22;44361;51.476;5.700;2023-05-02T07:46:18;11.70;99.90
58582;DHT22;44361;51.476;5.700;2023-05-02T07:48:44;11.70;98.60
58582;DHT22;44361;51.476;5.700;2023-05-02T07:51:10;11.60;97.90
58582;DHT22;44361;51.476;5.700;2023-05-02T07:53:35;11.80;98.00
58582;DHT22;44361;51.476;5.700;2023-05-02T07:56:04;12.30;98.90
58582;DHT22;44361;51.476;5.700;2023-05-02T07:58:31;12.60;96.90
58582;DHT22;44361;51.476;5.700;2023-05-02T08:00:57;12.40;95.90
58582;DHT22;44361;51.476;5.700;2023-05-02T08:03:22;12.10;96.30
58582;DHT22;44361;51.476;5.700;2023-05-02T08:05:48;12.10;96.40
58582;DHT22;44361;51.476;5.700;2023-05-02T08:08:14;12.30;95.50
58582;DHT22;44361;51.476;5.700;2023-05-02T08:10:39;12.00;95.20
58582;DHT22;44361;51.476;5.700;2023-05-02T08:13:05;11.70;95.00
58582;DHT22;44361;51.476;5.700;2023-05-02T08:15:30;11.60;96.40
58582;DHT22;44361;51.476;5.700;2023-05-02T08:17:56;11.70;96.90
58582;DHT22;44361;51.476;5.700;2023-05-02T08:20:21;11.90;95.50
58582;DHT22;44361;51.476;5.700;2023-05-02T08:22:47;11.70;95.70
58582;DHT22;44361;51.476;5.700;2023-05-02T08:25:13;11.60;95.60
58582;DHT22;44361;51.476;5.700;2023-05-02T08:27:38;11.60;95.60
58582;DHT22;44361;51.476;5.700;2023-05-02T08:30:04;11.50;95.70
58582;DHT22;44361;51.476;5.700;2023-05-02T08:32:31;11.60;96.00
58582;DHT22;44361;51.476;5.700;2023-05-02T08:34:57;11.80;95.80
58582;DHT22;44361;51.476;5.700;2023-05-02T08:37:22;11.90;94.90
58582;DHT22;44361;51.476;5.700;2023-05-02T08:39:48;11.90;94.20
58582;DHT22;44361;51.476;5.700;2023-05-02T08:42:13;12.10;95.10
58582;DHT22;44361;51.476;5.700;2023-05-02T08:44:39;12.20;94.20
58582;DHT22;44361;51.476;5.700;2023-05-02T08:47:05;12.50;94.80
58582;DHT22;44361;51.476;5.700;2023-05-02T08:49:34;12.60;94.50
58582;DHT22;44361;51.476;5.700;2023-05-02T08:52:01;12.70;93.70
58582;DHT22;44361;51.476;5.700;2023-05-02T08:54:29;12.50;91.90
58582;DHT22;44361;51.476;5.700;2023-05-02T08:56:55;12.30;90.50
58582;DHT22;44361;51.476;5.700;2023-05-02T08:59:21;12.10;90.80
58582;DHT22;44361;51.476;5.700;2023-05-02T09:01:48;12.30;91.60
58582;DHT22;44361;51.476;5.700;2023-05-02T09:04:19;12.40;90.40
58582;DHT22;44361;51.476;5.700;2023-05-02T09:06:48;12.40;90.70
58582;DHT22;44361;51.476;5.700;2023-05-02T09:09:13;12.30;90.90
58582;DHT22;44361;51.476;5.700;2023-05-02T09:11:39;12.40;88.90
58582;DHT22;44361;51.476;5.700;2023-05-02T09:14:16;12.30;90.00
58582;DHT22;44361;51.476;5.700;2023-05-02T09:16:42;12.40;88.20
58582;DHT22;44361;51.476;5.700;2023-05-02T09:19:08;12.40;90.10
58582;DHT22;44361;51.476;5.700;2023-05-02T09:21:36;12.40;89.10
58582;DHT22;44361;51.476;5.700;2023-05-02T09:24:16;12.60;89.30
58582;DHT22;44361;51.476;5.700;2023-05-02T09:26:55;12.80;87.60
58582;DHT22;44361;51.476;5.700;2023-05-02T09:29:20;13.00;85.10
58582;DHT22;44361;51.476;5.700;2023-05-02T09:31:46;13.10;82.10
58582;DHT22;44361;51.476;5.700;2023-05-02T09:34:15;13.30;87.20
58582;DHT22;44361;51.476;5.700;2023-05-02T09:36:49;13.10;80.40
58582;DHT22;44361;51.476;5.700;2023-05-02T09:39:18;13.00;80.50
58582;DHT22;44361;51.476;5.700;2023-05-02T09:41:47;13.00;84.50
58582;DHT22;44361;51.476;5.700;2023-05-02T09:44:17;13.10;81.20
58582;DHT22;44361;51.476;5.700;2023-05-02T09:46:47;13.20;79.50
58582;DHT22;44361;51.476;5.700;2023-05-02T09:49:14;13.30;78.90
58582;DHT22;44361;51.476;5.700;2023-05-02T09:51:43;13.40;78.00
58582;DHT22;44361;51.476;5.700;2023-05-02T09:54:08;13.10;79.20
58582;DHT22;44361;51.476;5.700;2023-05-02T09:56:56;13.00;77.90
58582;DHT22;44361;51.476;5.700;2023-05-02T09:59:22;13.60;76.90
58582;DHT22;44361;51.476;5.700;2023-05-02T10:01:59;13.90;75.70
58582;DHT22;44361;51.476;5.700;2023-05-02T10:04:25;13.80;74.90
58582;DHT22;44361;51.476;5.700;2023-05-02T10:06:52;13.60;73.30
58582;DHT22;44361;51.476;5.700;2023-05-02T10:09:19;13.50;77.00
58582;DHT22;44361;51.476;5.700;2023-05-02T10:11:46;13.20;78.60
58582;DHT22;44361;51.476;5.700;2023-05-02T10:14:15;13.30;77.60
58582;DHT22;44361;51.476;5.700;2023-05-02T10:16:57;13.60;80.60
58582;DHT22;44361;51.476;5.700;2023-05-02T10:19:28;13.50;77.20
58582;DHT22;44361;51.476;5.700;2023-05-02T10:21:55;13.40;79.10
58582;DHT22;44361;51.476;5.700;2023-05-02T10:24:21;13.60;76.30
58582;DHT22;44361;51.476;5.700;2023-05-02T10:26:49;13.80;77.90
58582;DHT22;44361;51.476;5.700;2023-05-02T10:29:14;14.10;78.20
58582;DHT22;44361;51.476;5.700;2023-05-02T10:31:40;14.30;76.50
58582;DHT22;44361;51.476;5.700;2023-05-02T10:34:10;14.20;74.30
58582;DHT22;44361;51.476;5.700;2023-05-02T10:36:36;14.30;73.90
58582;DHT22;44361;51.476;5.700;2023-05-02T10:39:02;14.50;77.10
58582;DHT22;44361;51.476;5.700;2023-05-02T10:41:30;14.30;68.60
58582;DHT22;44361;51.476;5.700;2023-05-02T10:43:56;14.10;70.60
58582;DHT22;44361;51.476;5.700;2023-05-02T10:46:36;14.00;70.10
58582;DHT22;44361;51.476;5.700;2023-05-02T10:49:05;14.20;72.90
58582;DHT22;44361;51.476;5.700;2023-05-02T10:51:31;14.10;70.10
58582;DHT22;44361;51.476;5.700;2023-05-02T10:54:18;14.30;70.00
58582;DHT22;44361;51.476;5.700;2023-05-02T10:59:29;14.10;69.60
58582;DHT22;44361;51.476;5.700;2023-05-02T11:01:55;14.30;71.10
58582;DHT22;44361;51.476;5.700;2023-05-02T11:04:22;14.20;71.20
58582;DHT22;44361;51.476;5.700;2023-05-02T11:09:29;14.40;73.30
58582;DHT22;44361;51.476;5.700;2023-05-02T11:11:55;14.50;68.00
58582;DHT22;44361;51.476;5.700;2023-05-02T11:19:22;14.20;66.20
58582;DHT22;44361;51.476;5.700;2023-05-02T11:21:48;14.20;66.70
58582;DHT22;44361;51.476;5.700;2023-05-02T11:24:39;14.70;66.90
58582;DHT22;44361;51.476;5.700;2023-05-02T11:29:54;15.50;65.60
58582;DHT22;44361;51.476;5.700;2023-05-02T11:32:20;15.30;63.30
58582;DHT22;44361;51.476;5.700;2023-05-02T11:34:47;14.90;68.00
58582;DHT22;44361;51.476;5.700;2023-05-02T11:37:17;14.50;64.50
58582;DHT22;44361;51.476;5.700;2023-05-02T11:39:44;14.30;68.20
58582;DHT22;44361;51.476;5.700;2023-05-02T11:42:29;14.10;67.10
58582;DHT22;44361;51.476;5.700;2023-05-02T11:44:57;14.00;67.40
58582;DHT22;44361;51.476;5.700;2023-05-02T11:47:24;13.60;67.30
58582;DHT22;44361;51.476;5.700;2023-05-02T11:49:50;13.80;69.80
58582;DHT22;44361;51.476;5.700;2023-05-02T11:52:16;14.40;67.60
58582;DHT22;44361;51.476;5.700;2023-05-02T11:54:41;15.00;67.20
58582;DHT22;44361;51.476;5.700;2023-05-02T11:57:07;14.80;65.60
58582;DHT22;44361;51.476;5.700;2023-05-02T11:59:52;14.90;67.00
58582;DHT22;44361;51.476;5.700;2023-05-02T12:02:18;14.80;63.40
58582;DHT22;44361;51.476;5.700;2023-05-02T12:04:44;14.90;63.40
58582;DHT22;44361;51.476;5.700;2023-05-02T12:07:09;15.40;64.90
58582;DHT22;44361;51.476;5.700;2023-05-02T12:09:35;15.60;62.90
58582;DHT22;44361;51.476;5.700;2023-05-02T12:12:01;15.60;63.70
58582;DHT22;44361;51.476;5.700;2023-05-02T12:14:31;14.90;61.70
58582;DHT22;44361;51.476;5.700;2023-05-02T12:17:02;14.40;61.50
58582;DHT22;44361;51.476;5.700;2023-05-02T12:19:28;14.40;63.20
58582;DHT22;44361;51.476;5.700;2023-05-02T12:21:53;14.90;62.80
58582;DHT22;44361;51.476;5.700;2023-05-02T12:24:19;15.10;67.40
58582;DHT22;44361;51.476;5.700;2023-05-02T12:26:45;15.40;66.90
58582;DHT22;44361;51.476;5.700;2023-05-02T12:29:11;15.20;65.10
58582;DHT22;44361;51.476;5.700;2023-05-02T12:31:37;15.30;65.50
58582;DHT22;44361;51.476;5.700;2023-05-02T12:34:02;15.40;64.50
58582;DHT22;44361;51.476;5.700;2023-05-02T12:36:28;15.40;63.10
58582;DHT22;44361;51.476;5.700;2023-05-02T12:38:55;14.50;61.80
58582;DHT22;44361;51.476;5.700;2023-05-02T12:41:37;14.40;62.50
58582;DHT22;44361;51.476;5.700;2023-05-02T12:44:03;14.50;64.40
58582;DHT22;44361;51.476;5.700;2023-05-02T12:46:29;14.70;63.60
58582;DHT22;44361;51.476;5.700;2023-05-02T12:49:08;14.60;62.00
58582;DHT22;44361;51.476;5.700;2023-05-02T12:51:37;14.50;61.70
58582;DHT22;44361;51.476;5.700;2023-05-02T12:54:03;14.20;62.50
58582;DHT22;44361;51.476;5.700;2023-05-02T12:56:29;14.00;62.40
58582;DHT22;44361;51.476;5.700;2023-05-02T12:58:57;14.00;65.90
58582;DHT22;44361;51.476;5.700;2023-05-02T13:01:28;14.40;64.30
58582;DHT22;44361;51.476;5.700;2023-05-02T13:03:53;14.70;61.00
58582;DHT22;44361;51.476;5.700;2023-05-02T13:06:19;15.00;60.60
58582;DHT22;44361;51.476;5.700;2023-05-02T13:08:45;15.40;60.00
58582;DHT22;44361;51.476;5.700;2023-05-02T13:11:10;15.60;60.40
58582;DHT22;44361;51.476;5.700;2023-05-02T13:13:37;15.70;62.90
58582;DHT22;44361;51.476;5.700;2023-05-02T13:16:02;15.60;64.50
58582;DHT22;44361;51.476;5.700;2023-05-02T13:18:28;15.10;58.10
58582;DHT22;44361;51.476;5.700;2023-05-02T13:20:54;14.60;59.30
58582;DHT22;44361;51.476;5.700;2023-05-02T13:23:19;14.40;58.90
58582;DHT22;44361;51.476;5.700;2023-05-02T13:25:45;14.10;58.20
58582;DHT22;44361;51.476;5.700;2023-05-02T13:28:10;14.20;61.20
58582;DHT22;44361;51.476;5.700;2023-05-02T13:30:36;14.40;59.30
58582;DHT22;44361;51.476;5.700;2023-05-02T13:33:01;14.30;64.00
58582;DHT22;44361;51.476;5.700;2023-05-02T13:35:27;14.20;59.40
58582;DHT22;44361;51.476;5.700;2023-05-02T13:37:52;14.50;61.60
58582;DHT22;44361;51.476;5.700;2023-05-02T13:40:18;14.60;60.50
58582;DHT22;44361;51.476;5.700;2023-05-02T13:42:43;14.60;61.10
58582;DHT22;44361;51.476;5.700;2023-05-02T13:45:09;14.80;58.10
58582;DHT22;44361;51.476;5.700;2023-05-02T13:47:35;14.70;58.40
58582;DHT22;44361;51.476;5.700;2023-05-02T13:50:01;14.80;61.00
58582;DHT22;44361;51.476;5.700;2023-05-02T13:52:27;15.20;57.70
58582;DHT22;44361;51.476;5.700;2023-05-02T13:54:53;15.40;57.00
58582;DHT22;44361;51.476;5.700;2023-05-02T13:57:18;15.30;59.10
58582;DHT22;44361;51.476;5.700;2023-05-02T13:59:44;15.20;58.40
58582;DHT22;44361;51.476;5.700;2023-05-02T14:02:09;14.90;58.60
58582;DHT22;44361;51.476;5.700;2023-05-02T14:04:35;14.90;61.00
58582;DHT22;44361;51.476;5.700;2023-05-02T14:07:01;15.10;59.00
58582;DHT22;44361;51.476;5.700;2023-05-02T14:09:26;15.00;59.40
58582;DHT22;44361;51.476;5.700;2023-05-02T14:11:52;14.90;57.90
58582;DHT22;44361;51.476;5.700;2023-05-02T14:14:17;14.70;58.80
58582;DHT22;44361;51.476;5.700;2023-05-02T14:16:43;14.80;57.20
58582;DHT22;44361;51.476;5.700;2023-05-02T14:19:09;15.20;58.30
58582;DHT22;44361;51.476;5.700;2023-05-02T14:21:34;15.10;56.70
58582;DHT22;44361;51.476;5.700;2023-05-02T14:24:01;14.80;57.40
58582;DHT22;44361;51.476;5.700;2023-05-02T14:26:27;15.30;57.50
58582;DHT22;44361;51.476;5.700;2023-05-02T14:28:52;15.40;58.20
58582;DHT22;44361;51.476;5.700;2023-05-02T14:31:18;15.40;56.70
58582;DHT22;44361;51.476;5.700;2023-05-02T14:33:43;15.10;58.30
58582;DHT22;44361;51.476;5.700;2023-05-02T14:36:09;15.20;57.80
58582;DHT22;44361;51.476;5.700;2023-05-02T14:38:35;15.20;56.40
58582;DHT22;44361;51.476;5.700;2023-05-02T14:41:00;15.30;55.40
58582;DHT22;44361;51.476;5.700;2023-05-02T14:43:27;15.10;56.90
58582;DHT22;44361;51.476;5.700;2023-05-02T14:45:53;14.90;58.20
58582;DHT22;44361;51.476;5.700;2023-05-02T14:48:18;14.90;58.00
58582;DHT22;44361;51.476;5.700;2023-05-02T14:50:44;15.00;58.10
58582;DHT22;44361;51.476;5.700;2023-05-02T14:53:09;15.10;60.70
58582;DHT22;44361;51.476;5.700;2023-05-02T14:55:37;15.00;56.90
58582;DHT22;44361;51.476;5.700;2023-05-02T14:58:04;14.50;57.30
58582;DHT22;44361;51.476;5.700;2023-05-02T15:00:32;14.60;57.60
58582;DHT22;44361;51.476;5.700;2023-05-02T15:02:57;14.80;58.90
58582;DHT22;44361;51.476;5.700;2023-05-02T15:05:23;14.60;56.70
58582;DHT22;44361;51.476;5.700;2023-05-02T15:07:48;14.60;56.50
58582;DHT22;44361;51.476;5.700;2023-05-02T15:10:14;14.40;57.70
58582;DHT22;44361;51.476;5.700;2023-05-02T15:12:39;14.70;60.10
58582;DHT22;44361;51.476;5.700;2023-05-02T15:15:07;14.80;57.10
58582;DHT22;44361;51.476;5.700;2023-05-02T15:17:33;15.00;57.20
58582;DHT22;44361;51.476;5.700;2023-05-02T15:19:59;14.90;58.60
58582;DHT22;44361;51.476;5.700;2023-05-02T15:22:24;15.20;59.10
58582;DHT22;44361;51.476;5.700;2023-05-02T15:24:50;15.10;60.30
58582;DHT22;44361;51.476;5.700;2023-05-02T15:27:15;15.20;57.60
58582;DHT22;44361;51.476;5.700;2023-05-02T15:29:41;15.30;57.90
58582;DHT22;44361;51.476;5.700;2023-05-02T15:32:07;15.40;57.40
58582;DHT22;44361;51.476;5.700;2023-05-02T15:34:32;15.30;59.90
58582;DHT22;44361;51.476;5.700;2023-05-02T15:36:58;15.40;57.30
58582;DHT22;44361;51.476;5.700;2023-05-02T15:39:25;15.40;58.00
58582;DHT22;44361;51.476;5.700;2023-05-02T15:41:52;15.30;59.00
58582;DHT22;44361;51.476;5.700;2023-05-02T15:44:18;15.10;57.30
58582;DHT22;44361;51.476;5.700;2023-05-02T15:46:43;15.00;57.20
58582;DHT22;44361;51.476;5.700;2023-05-02T15:49:11;15.00;57.70
58582;DHT22;44361;51.476;5.700;2023-05-02T15:51:37;14.90;57.70
58582;DHT22;44361;51.476;5.700;2023-05-02T15:54:02;15.00;57.70
58582;DHT22;44361;51.476;5.700;2023-05-02T15:56:28;14.90;58.50
58582;DHT22;44361;51.476;5.700;2023-05-02T15:58:53;14.90;57.50
58582;DHT22;44361;51.476;5.700;2023-05-02T16:01:19;15.00;57.50
58582;DHT22;44361;51.476;5.700;2023-05-02T16:03:45;14.90;58.60